Shimojishima, Shimojishima Airport (RORS)

NameShimojishima Airport
CityShimojishima
CountryJapan
ICAORORS
IATASHI
Altitude2 m
CoordinatesGoogle Map
Live Air TrafficLiveATC.net
METARRORS 192200Z 21005KT 170V250 9999 FEW012 BKN/// 27/26 Q1007
2019-06-19 22:00:00 Wind: South-Southwest (210°) 2.57 m/s - Visibility: > 10000 m - Temperature: 27 °C - Dew point: 26 °C - Humidity: 94.3% - Pressure: 1007 hPa
Statistics

The table below shows the detailed information of all flights to/from Shimojishima, Shimojishima Airport (RORS).